Time;durP1;ratioP1;P1;durP2;ratioP2;P2;SDS_P1;SDS_P2;PMS_P1;PMS_P2;Temp;Humidity;BMP_temperature;BMP_pressure;BME280_temperature;BME280_humidity;BME280_pressure;Samples;Min_cycle;Max_cycle;Signal;HPM_P1;HPM_P2
2023/11/13 00:02:19;;;;;;;;;;;7.40;95.30;;;;;;4910157;29;19970;-86
2023/11/13 00:04:46;;;;;;;;;;;7.40;95.40;;;;;;4915006;29;20309;-87
2023/11/13 00:07:13;;;;;;;;;;;7.30;95.40;;;;;;4913382;29;19919;-86
2023/11/13 00:09:38;;;;;;;;;;;7.30;95.50;;;;;;4913828;29;19911;-87
2023/11/13 00:12:04;;;;;;;;;;;7.30;95.50;;;;;;4918032;29;20292;-87
2023/11/13 00:14:29;;;;;;;;;;;7.20;95.60;;;;;;4910541;29;19918;-88
2023/11/13 00:16:55;;;;;;;;;;;7.20;95.70;;;;;;4911485;29;20298;-89
2023/11/13 00:19:22;;;;;;;;;;;7.20;95.80;;;;;;4911762;29;19921;-87
2023/11/13 00:21:47;;;;;;;;;;;7.10;95.90;;;;;;4909700;29;20486;-87
2023/11/13 00:24:13;;;;;;;;;;;7.10;96.20;;;;;;4913915;29;19919;-87
2023/11/13 00:26:39;;;;;;;;;;;7.10;96.10;;;;;;4913113;29;19974;-87
2023/11/13 00:29:05;;;;;;;;;;;7.10;96.00;;;;;;4923442;29;19993;-87
2023/11/13 00:31:31;;;;;;;;;;;7.10;96.00;;;;;;4916280;29;19915;-87
2023/11/13 00:33:56;;;;;;;;;;;7.00;96.10;;;;;;4911431;29;19963;-88
2023/11/13 00:36:22;;;;;;;;;;;7.00;96.20;;;;;;4916032;29;19915;-88
2023/11/13 00:38:47;;;;;;;;;;;6.90;96.30;;;;;;4912162;29;20298;-87
2023/11/13 00:41:13;;;;;;;;;;;6.90;96.30;;;;;;4910244;29;19918;-87
2023/11/13 00:43:39;;;;;;;;;;;6.90;96.40;;;;;;4915006;29;19918;-86
2023/11/13 00:46:05;;;;;;;;;;;6.90;96.40;;;;;;4911266;29;19915;-87
2023/11/13 00:48:32;;;;;;;;;;;7.00;96.40;;;;;;4914114;29;20009;-86
2023/11/13 00:50:57;;;;;;;;;;;6.90;96.30;;;;;;4915589;29;19918;-86
2023/11/13 00:53:23;;;;;;;;;;;6.90;96.30;;;;;;4915600;29;19915;-86
2023/11/13 00:55:48;;;;;;;;;;;6.90;96.40;;;;;;4917483;29;20421;-86
2023/11/13 00:58:15;;;;;;;;;;;6.90;96.40;;;;;;4914539;29;20413;-86
2023/11/13 01:00:40;;;;;;;;;;;6.90;96.50;;;;;;4919977;29;19943;-86
2023/11/13 01:03:14;;;;;;;;;;;6.90;96.50;;;;;;4916244;29;19911;-89
2023/11/13 01:05:40;;;;;;;;;;;6.90;96.50;;;;;;4916177;29;19930;-85
2023/11/13 01:08:06;;;;;;;;;;;6.90;96.60;;;;;;4918663;29;20429;-85
2023/11/13 01:10:31;;;;;;;;;;;6.90;96.60;;;;;;4915092;29;19987;-85
2023/11/13 01:12:57;;;;;;;;;;;6.90;96.60;;;;;;4927017;29;19977;-86
2023/11/13 01:15:22;;;;;;;;;;;6.90;96.50;;;;;;4915952;29;19919;-85
2023/11/13 01:17:48;;;;;;;;;;;6.90;96.50;;;;;;4922241;29;19926;-85
2023/11/13 01:20:14;;;;;;;;;;;6.90;96.50;;;;;;4915318;29;20293;-85
2023/11/13 01:22:39;;;;;;;;;;;6.90;96.60;;;;;;4917447;29;19918;-85
2023/11/13 01:25:05;;;;;;;;;;;6.90;96.60;;;;;;4922885;29;20433;-85
2023/11/13 01:27:30;;;;;;;;;;;6.80;96.50;;;;;;4914912;29;19919;-85
2023/11/13 01:29:56;;;;;;;;;;;6.80;96.70;;;;;;4931123;29;20005;-86
2023/11/13 01:32:21;;;;;;;;;;;6.80;96.70;;;;;;4909700;29;19934;-88
2023/11/13 01:34:47;;;;;;;;;;;6.70;97.00;;;;;;4910129;29;19915;-88
2023/11/13 01:37:14;;;;;;;;;;;6.70;96.80;;;;;;4916376;29;20401;-89
2023/11/13 01:39:40;;;;;;;;;;;6.70;96.90;;;;;;4900312;29;19915;-85
2023/11/13 01:42:05;;;;;;;;;;;6.70;97.00;;;;;;4915953;29;19934;-85
2023/11/13 01:44:31;;;;;;;;;;;6.70;96.90;;;;;;4916145;29;19966;-85
2023/11/13 01:46:57;;;;;;;;;;;6.70;96.80;;;;;;4916461;29;19942;-85
2023/11/13 01:49:22;;;;;;;;;;;6.60;96.90;;;;;;4915285;29;19911;-86
2023/11/13 01:51:48;;;;;;;;;;;6.50;97.00;;;;;;4914118;29;19986;-85
2023/11/13 01:54:15;;;;;;;;;;;6.50;97.20;;;;;;4916112;29;20422;-85
2023/11/13 01:56:43;;;;;;;;;;;6.60;97.30;;;;;;4913090;29;19966;-85
2023/11/13 01:59:09;;;;;;;;;;;6.60;97.60;;;;;;4910574;29;19914;-86
2023/11/13 02:01:35;;;;;;;;;;;6.60;97.40;;;;;;4910461;29;19915;-86
2023/11/13 02:04:00;;;;;;;;;;;6.60;97.40;;;;;;4913827;29;19969;-87
2023/11/13 02:06:26;;;;;;;;;;;6.50;97.40;;;;;;4913302;29;19911;-86
2023/11/13 02:08:51;;;;;;;;;;;6.50;97.50;;;;;;4912288;29;19964;-87
2023/11/13 02:11:18;;;;;;;;;;;6.60;97.50;;;;;;4915949;29;20428;-87
2023/11/13 02:13:44;;;;;;;;;;;6.50;97.40;;;;;;4910385;29;19914;-86
2023/11/13 02:16:12;;;;;;;;;;;6.60;97.50;;;;;;4913859;29;20021;-86
2023/11/13 02:18:38;;;;;;;;;;;6.60;97.50;;;;;;4916250;29;19911;-87
2023/11/13 02:21:03;;;;;;;;;;;6.70;97.40;;;;;;4911571;29;19922;-86
2023/11/13 02:23:29;;;;;;;;;;;6.60;97.30;;;;;;4912884;29;20383;-86
2023/11/13 02:25:57;;;;;;;;;;;6.50;97.40;;;;;;4913882;29;19915;-87
2023/11/13 02:28:23;;;;;;;;;;;6.50;97.50;;;;;;4908630;29;19911;-87
2023/11/13 02:30:48;;;;;;;;;;;6.60;97.50;;;;;;4910429;29;20392;-87
2023/11/13 02:33:14;;;;;;;;;;;6.60;97.60;;;;;;4912685;29;20006;-86
2023/11/13 02:35:40;;;;;;;;;;;6.60;97.50;;;;;;4913847;29;20014;-86
2023/11/13 02:38:05;;;;;;;;;;;6.60;97.50;;;;;;4912083;29;20434;-86
2023/11/13 02:40:31;;;;;;;;;;;6.60;97.50;;;;;;4910486;29;19915;-85
2023/11/13 02:42:56;;;;;;;;;;;6.60;97.50;;;;;;4910097;29;19911;-86
2023/11/13 02:45:25;;;;;;;;;;;6.70;97.50;;;;;;4927100;29;19919;-86
2023/11/13 02:47:51;;;;;;;;;;;6.70;97.40;;;;;;4912217;29;19919;-87
2023/11/13 02:50:17;;;;;;;;;;;6.70;97.40;;;;;;4912474;29;19922;-86
2023/11/13 02:52:43;;;;;;;;;;;6.70;97.40;;;;;;4911589;29;20297;-86
2023/11/13 02:55:08;;;;;;;;;;;6.70;97.30;;;;;;4911926;29;20396;-87
2023/11/13 02:57:34;;;;;;;;;;;6.60;97.30;;;;;;4929000;29;19911;-86
2023/11/13 02:59:59;;;;;;;;;;;6.60;97.50;;;;;;4914438;29;19911;-85
2023/11/13 03:02:25;;;;;;;;;;;6.50;97.60;;;;;;4917512;29;20001;-85
2023/11/13 03:04:50;;;;;;;;;;;6.60;97.70;;;;;;4921588;29;19915;-85
2023/11/13 03:07:15;;;;;;;;;;;6.70;97.60;;;;;;4933509;29;19974;-86
2023/11/13 03:09:41;;;;;;;;;;;6.70;97.50;;;;;;4915085;29;19959;-85
2023/11/13 03:12:07;;;;;;;;;;;6.60;97.40;;;;;;4913177;29;19914;-86
2023/11/13 03:14:32;;;;;;;;;;;6.60;97.40;;;;;;4913416;29;19911;-85
2023/11/13 03:16:58;;;;;;;;;;;6.60;97.60;;;;;;4922840;29;19922;-86
2023/11/13 03:19:23;;;;;;;;;;;6.70;97.70;;;;;;4919703;29;19922;-85
2023/11/13 03:21:49;;;;;;;;;;;6.70;97.40;;;;;;4908138;29;19966;-85
2023/11/13 03:24:14;;;;;;;;;;;6.70;97.30;;;;;;4913810;29;20013;-90
2023/11/13 03:26:40;;;;;;;;;;;6.70;97.40;;;;;;4913244;29;19915;-90
2023/11/13 03:29:05;;;;;;;;;;;6.70;97.50;;;;;;4913545;29;19946;-90
2023/11/13 03:31:30;;;;;;;;;;;6.80;97.50;;;;;;4913117;29;19915;-90
2023/11/13 03:33:56;;;;;;;;;;;6.80;97.50;;;;;;4908899;29;19918;-88
2023/11/13 03:36:22;;;;;;;;;;;6.80;97.40;;;;;;4911300;29;19914;-88
2023/11/13 03:38:47;;;;;;;;;;;6.80;97.30;;;;;;4909047;29;19978;-89
2023/11/13 03:41:13;;;;;;;;;;;6.90;97.30;;;;;;4912008;29;19922;-88
2023/11/13 03:43:38;;;;;;;;;;;6.80;97.30;;;;;;4912017;29;19911;-88
2023/11/13 03:46:04;;;;;;;;;;;6.90;97.40;;;;;;4912545;29;20366;-88
2023/11/13 03:48:30;;;;;;;;;;;6.90;97.30;;;;;;4911004;29;19918;-89
2023/11/13 03:50:55;;;;;;;;;;;6.90;97.30;;;;;;4910877;29;19966;-90
2023/11/13 03:53:21;;;;;;;;;;;6.90;97.30;;;;;;4910498;29;20397;-87
2023/11/13 03:55:47;;;;;;;;;;;7.00;97.30;;;;;;4912176;29;19918;-87
2023/11/13 03:58:12;;;;;;;;;;;7.00;97.30;;;;;;4903865;29;19911;-88
2023/11/13 04:00:38;;;;;;;;;;;7.00;97.30;;;;;;4915915;29;19911;-87
2023/11/13 04:03:03;;;;;;;;;;;7.10;97.30;;;;;;4913228;29;19911;-88
2023/11/13 04:05:29;;;;;;;;;;;7.10;97.20;;;;;;4912463;29;19911;-88
2023/11/13 04:07:55;;;;;;;;;;;7.00;97.10;;;;;;4907410;29;19918;-88
2023/11/13 04:10:22;;;;;;;;;;;7.10;97.20;;;;;;4913337;29;19923;-89
2023/11/13 04:12:54;;;;;;;;;;;7.20;97.10;;;;;;4897862;29;19922;-88
2023/11/13 04:15:20;;;;;;;;;;;7.10;96.90;;;;;;4910454;29;19915;-87
2023/11/13 04:17:46;;;;;;;;;;;7.10;97.00;;;;;;4916194;29;19957;-89
2023/11/13 04:20:12;;;;;;;;;;;7.20;97.10;;;;;;4919284;29;19911;-90
2023/11/13 04:22:44;;;;;;;;;;;7.10;97.10;;;;;;4912409;29;20001;-90
2023/11/13 04:25:09;;;;;;;;;;;7.10;97.10;;;;;;4912528;29;19918;-90
2023/11/13 04:27:35;;;;;;;;;;;7.10;97.30;;;;;;4914301;29;19912;-89
2023/11/13 04:30:00;;;;;;;;;;;7.10;97.20;;;;;;4910737;29;19950;-85
2023/11/13 04:32:26;;;;;;;;;;;7.10;97.20;;;;;;4915064;29;19918;-86
2023/11/13 04:34:52;;;;;;;;;;;7.10;97.20;;;;;;4912705;29;19914;-86
2023/11/13 04:37:17;;;;;;;;;;;7.10;97.30;;;;;;4911041;29;19911;-86
2023/11/13 04:39:43;;;;;;;;;;;7.10;97.30;;;;;;4912316;29;19919;-86
2023/11/13 04:42:09;;;;;;;;;;;7.10;97.50;;;;;;4908905;29;19912;-86
2023/11/13 04:44:35;;;;;;;;;;;7.10;97.50;;;;;;4912282;29;19911;-87
2023/11/13 04:47:00;;;;;;;;;;;7.00;97.50;;;;;;4915049;29;19915;-87
2023/11/13 04:49:26;;;;;;;;;;;7.10;97.60;;;;;;4911949;29;19971;-86
2023/11/13 04:51:51;;;;;;;;;;;7.10;97.70;;;;;;4912448;29;20717;-87
2023/11/13 04:54:17;;;;;;;;;;;7.10;97.70;;;;;;4914763;29;19911;-86
2023/11/13 04:56:43;;;;;;;;;;;7.10;97.70;;;;;;4913301;29;19966;-89
2023/11/13 04:59:11;;;;;;;;;;;7.20;97.70;;;;;;4912902;29;20377;-87
2023/11/13 05:01:37;;;;;;;;;;;7.20;97.70;;;;;;4908451;29;19918;-87
2023/11/13 05:04:05;;;;;;;;;;;7.20;97.60;;;;;;4914746;29;20381;-87
2023/11/13 05:06:31;;;;;;;;;;;7.20;97.60;;;;;;4912746;29;19919;-89
2023/11/13 05:08:56;;;;;;;;;;;7.30;97.60;;;;;;4904540;29;19911;-88
2023/11/13 05:11:26;;;;;;;;;;;7.30;97.50;;;;;;4907258;29;19911;-88
2023/11/13 05:13:51;;;;;;;;;;;7.30;97.50;;;;;;4915421;29;19911;-88
2023/11/13 05:16:18;;;;;;;;;;;7.30;97.40;;;;;;4916526;29;19958;-87
2023/11/13 05:18:43;;;;;;;;;;;7.40;97.40;;;;;;4912806;29;19911;-85
2023/11/13 05:21:09;;;;;;;;;;;7.30;97.50;;;;;;4913255;29;19911;-86
2023/11/13 05:23:35;;;;;;;;;;;7.30;97.60;;;;;;4921905;29;19918;-87
2023/11/13 05:26:01;;;;;;;;;;;7.30;97.60;;;;;;4912239;29;19914;-86
2023/11/13 05:28:27;;;;;;;;;;;7.30;97.70;;;;;;4906407;29;19911;-87
2023/11/13 05:30:52;;;;;;;;;;;7.30;97.80;;;;;;4915686;29;19914;-87
2023/11/13 05:33:20;;;;;;;;;;;7.40;97.70;;;;;;4916374;29;19911;-87
2023/11/13 05:35:45;;;;;;;;;;;7.40;97.70;;;;;;4917669;29;20404;-88
2023/11/13 05:38:11;;;;;;;;;;;7.30;97.80;;;;;;4916454;29;19915;-89
2023/11/13 05:40:37;;;;;;;;;;;7.40;97.90;;;;;;4912684;29;19911;-90
2023/11/13 05:43:02;;;;;;;;;;;7.30;98.00;;;;;;4913611;29;19967;-87
2023/11/13 05:45:28;;;;;;;;;;;7.30;98.20;;;;;;4909080;29;19914;-86
2023/11/13 05:47:54;;;;;;;;;;;7.30;98.30;;;;;;4914908;29;19918;-86
2023/11/13 05:50:20;;;;;;;;;;;7.30;98.40;;;;;;4909655;29;20276;-88
2023/11/13 05:52:47;;;;;;;;;;;7.40;98.40;;;;;;4934137;28;20013;-89
2023/11/13 05:55:12;;;;;;;;;;;7.40;98.40;;;;;;4917013;29;20005;-88
2023/11/13 05:57:38;;;;;;;;;;;7.30;98.50;;;;;;4918517;29;19958;-89
2023/11/13 06:00:04;;;;;;;;;;;7.40;98.70;;;;;;4916335;29;19934;-87
2023/11/13 06:02:29;;;;;;;;;;;7.30;98.70;;;;;;4917200;29;19918;-84
2023/11/13 06:04:57;;;;;;;;;;;7.30;98.80;;;;;;4916906;29;19911;-88
2023/11/13 06:07:28;;;;;;;;;;;7.30;98.90;;;;;;4911732;29;19942;-88
2023/11/13 06:09:57;;;;;;;;;;;7.40;99.00;;;;;;4920938;29;19911;-87
2023/11/13 06:12:43;;;;;;;;;;;7.30;99.20;;;;;;4911630;29;20333;-86
2023/11/13 06:15:32;;;;;;;;;;;7.40;99.20;;;;;;4934025;29;19995;-88
2023/11/13 06:17:57;;;;;;;;;;;7.40;99.20;;;;;;4904930;29;19923;-84
2023/11/13 06:20:23;;;;;;;;;;;7.50;99.20;;;;;;4915085;29;19915;-86
2023/11/13 06:22:48;;;;;;;;;;;7.40;99.20;;;;;;4912564;29;19919;-86
2023/11/13 06:25:14;;;;;;;;;;;7.50;99.30;;;;;;4913493;29;19911;-84
2023/11/13 06:27:40;;;;;;;;;;;7.50;99.40;;;;;;4914622;29;20346;-86
2023/11/13 06:30:09;;;;;;;;;;;7.50;99.50;;;;;;4911695;29;19939;-86
2023/11/13 06:32:35;;;;;;;;;;;7.50;99.50;;;;;;4912210;29;19912;-86
2023/11/13 06:35:01;;;;;;;;;;;7.50;99.60;;;;;;4915339;29;19923;-87
2023/11/13 06:37:26;;;;;;;;;;;7.60;99.60;;;;;;4911050;29;20306;-87
2023/11/13 06:39:52;;;;;;;;;;;7.60;99.60;;;;;;4910004;29;19918;-87
2023/11/13 06:42:18;;;;;;;;;;;7.70;99.60;;;;;;4911493;29;20493;-87
2023/11/13 06:44:44;;;;;;;;;;;7.70;99.60;;;;;;4907862;29;19992;-88
2023/11/13 06:47:09;;;;;;;;;;;7.70;99.60;;;;;;4929231;29;20345;-87
2023/11/13 06:49:38;;;;;;;;;;;7.70;99.60;;;;;;4914696;29;19911;-87
2023/11/13 06:52:08;;;;;;;;;;;7.70;99.60;;;;;;4914224;29;19915;-89
2023/11/13 06:54:34;;;;;;;;;;;7.70;99.70;;;;;;4914453;29;20362;-88
2023/11/13 06:56:59;;;;;;;;;;;7.70;99.80;;;;;;4930805;28;19906;-87
2023/11/13 06:59:45;;;;;;;;;;;7.70;99.90;;;;;;4938816;28;19941;-87
2023/11/13 07:17:25;;;;;;;;;;;8.00;99.90;;;;;;4915694;29;20297;-87
2023/11/13 07:19:51;;;;;;;;;;;8.00;99.90;;;;;;4910896;29;19919;-87
2023/11/13 07:22:17;;;;;;;;;;;8.10;99.80;;;;;;4909853;29;20015;-87
2023/11/13 07:24:43;;;;;;;;;;;8.10;99.80;;;;;;4914209;29;20005;-86
2023/11/13 07:27:08;;;;;;;;;;;8.20;99.90;;;;;;4935367;29;19911;-86
2023/11/13 07:29:34;;;;;;;;;;;8.20;99.90;;;;;;4937554;28;20019;-86
2023/11/13 07:32:01;;;;;;;;;;;8.20;99.90;;;;;;4936821;28;20081;-85
2023/11/13 07:34:27;;;;;;;;;;;8.30;99.90;;;;;;4918542;28;20394;-87
2023/11/13 07:36:53;;;;;;;;;;;8.30;99.90;;;;;;4913165;29;20287;-87
2023/11/13 07:39:18;;;;;;;;;;;8.30;99.80;;;;;;4906240;29;19918;-87
2023/11/13 07:41:44;;;;;;;;;;;8.30;99.90;;;;;;4907143;29;19918;-87
2023/11/13 07:44:09;;;;;;;;;;;8.30;99.90;;;;;;4913000;29;20341;-87
2023/11/13 07:46:40;;;;;;;;;;;8.40;99.90;;;;;;4911732;29;19911;-88
2023/11/13 07:49:10;;;;;;;;;;;8.40;99.90;;;;;;4915803;29;20006;-87
2023/11/13 07:51:48;;;;;;;;;;;8.50;99.90;;;;;;4916802;28;19939;-87
2023/11/13 07:54:13;;;;;;;;;;;8.50;99.90;;;;;;4913277;29;20382;-88
2023/11/13 07:56:39;;;;;;;;;;;8.50;99.90;;;;;;4912580;29;19922;-87
2023/11/13 07:59:11;;;;;;;;;;;8.50;99.90;;;;;;4911065;29;20360;-89
2023/11/13 08:01:37;;;;;;;;;;;8.60;99.90;;;;;;4910926;29;19946;-87
2023/11/13 08:04:07;;;;;;;;;;;8.60;99.90;;;;;;4913277;29;19997;-87
2023/11/13 08:06:32;;;;;;;;;;;8.60;99.90;;;;;;4913011;29;19911;-89
2023/11/13 08:08:58;;;;;;;;;;;8.70;99.90;;;;;;4931029;28;19907;-86
2023/11/13 08:11:23;;;;;;;;;;;8.70;99.90;;;;;;4934891;28;19915;-86
2023/11/13 08:13:49;;;;;;;;;;;8.70;99.90;;;;;;4933126;28;19921;-86
2023/11/13 08:16:14;;;;;;;;;;;8.70;99.90;;;;;;4916553;29;19919;-87
2023/11/13 08:18:40;;;;;;;;;;;8.80;99.90;;;;;;4914788;29;19918;-86
2023/11/13 08:21:06;;;;;;;;;;;8.90;99.90;;;;;;4913965;29;19919;-88
2023/11/13 08:23:31;;;;;;;;;;;8.90;99.90;;;;;;4912861;29;20380;-90
2023/11/13 08:26:00;;;;;;;;;;;8.90;99.90;;;;;;4911814;29;19911;-89
2023/11/13 08:28:26;;;;;;;;;;;9.00;99.90;;;;;;4912392;29;19974;-88
2023/11/13 08:30:52;;;;;;;;;;;9.00;99.90;;;;;;4912753;29;19915;-88
2023/11/13 08:33:20;;;;;;;;;;;9.00;99.90;;;;;;4932788;28;19978;-87
2023/11/13 08:35:46;;;;;;;;;;;9.10;99.90;;;;;;4935673;28;19923;-87
2023/11/13 08:38:16;;;;;;;;;;;9.10;99.90;;;;;;4932449;29;19927;-88
2023/11/13 08:41:18;;;;;;;;;;;9.20;99.90;;;;;;4921991;28;20026;-88
2023/11/13 08:43:44;;;;;;;;;;;9.30;99.90;;;;;;4888638;29;19974;-88
2023/11/13 08:46:11;;;;;;;;;;;9.30;99.80;;;;;;4935635;23;20365;-86
2023/11/13 08:48:37;;;;;;;;;;;9.40;99.80;;;;;;4934869;29;19911;-85
2023/11/13 08:51:02;;;;;;;;;;;9.40;99.80;;;;;;4929485;29;20392;-84
2023/11/13 08:53:28;;;;;;;;;;;9.40;99.70;;;;;;4924821;29;19918;-84
2023/11/13 08:55:56;;;;;;;;;;;9.50;99.80;;;;;;4920127;29;19926;-85
2023/11/13 08:58:21;;;;;;;;;;;9.50;99.90;;;;;;4923974;29;20070;-86
2023/11/13 09:00:47;;;;;;;;;;;9.60;99.80;;;;;;4919862;29;20317;-85
2023/11/13 09:03:16;;;;;;;;;;;9.60;99.70;;;;;;4923368;29;19922;-89
2023/11/13 09:05:42;;;;;;;;;;;9.70;99.70;;;;;;4930365;29;19914;-84
2023/11/13 09:08:08;;;;;;;;;;;9.70;99.70;;;;;;4930406;29;19918;-85
2023/11/13 09:10:34;;;;;;;;;;;9.70;99.60;;;;;;4920145;29;19911;-82
2023/11/13 09:13:02;;;;;;;;;;;9.80;99.60;;;;;;4927963;29;20286;-85
2023/11/13 09:15:31;;;;;;;;;;;9.90;99.60;;;;;;4923159;29;20058;-85
2023/11/13 09:18:05;;;;;;;;;;;9.90;99.60;;;;;;4930506;29;19918;-84
2023/11/13 09:20:31;;;;;;;;;;;9.90;99.70;;;;;;4922532;29;20346;-84
2023/11/13 09:22:57;;;;;;;;;;;9.90;99.80;;;;;;4930206;29;20301;-85
2023/11/13 09:25:22;;;;;;;;;;;10.00;99.80;;;;;;4921939;29;19910;-85
2023/11/13 09:27:49;;;;;;;;;;;10.00;99.80;;;;;;4924312;29;20274;-83
2023/11/13 09:30:15;;;;;;;;;;;10.10;99.80;;;;;;4923446;29;19911;-83
2023/11/13 09:32:43;;;;;;;;;;;10.20;99.80;;;;;;4925392;29;19915;-85
2023/11/13 09:35:21;;;;;;;;;;;10.20;99.90;;;;;;4921357;29;20330;-85
2023/11/13 09:37:49;;;;;;;;;;;10.20;99.90;;;;;;4929372;29;20014;-84
2023/11/13 09:40:15;;;;;;;;;;;10.30;99.90;;;;;;4927458;29;20009;-87
2023/11/13 09:42:43;;;;;;;;;;;10.30;99.90;;;;;;4925947;29;19959;-84
2023/11/13 09:45:09;;;;;;;;;;;10.30;99.90;;;;;;4932596;29;20009;-86
2023/11/13 09:47:38;;;;;;;;;;;10.40;99.90;;;;;;4930740;29;19950;-83
2023/11/13 09:50:15;;;;;;;;;;;10.40;99.90;;;;;;4927283;29;20009;-83
2023/11/13 09:52:44;;;;;;;;;;;10.40;99.90;;;;;;4930676;29;19922;-85
2023/11/13 09:55:10;;;;;;;;;;;10.50;99.90;;;;;;4923255;29;19912;-83
2023/11/13 09:57:38;;;;;;;;;;;10.50;99.90;;;;;;4927532;29;19934;-83
2023/11/13 10:00:07;;;;;;;;;;;10.50;99.90;;;;;;4919198;29;19914;-83
2023/11/13 10:02:33;;;;;;;;;;;10.60;99.90;;;;;;4924047;29;19921;-84
2023/11/13 10:05:01;;;;;;;;;;;10.60;99.90;;;;;;4928376;29;20291;-86
2023/11/13 10:07:28;;;;;;;;;;;10.70;99.90;;;;;;4929780;28;19918;-85
2023/11/13 10:10:00;;;;;;;;;;;10.70;99.90;;;;;;4928791;29;19926;-86
2023/11/13 10:12:25;;;;;;;;;;;10.80;99.90;;;;;;4932615;29;19911;-85
2023/11/13 10:15:07;;;;;;;;;;;10.80;99.90;;;;;;4927325;29;19959;-84
2023/11/13 10:17:41;;;;;;;;;;;10.90;99.90;;;;;;4928311;29;19918;-86
2023/11/13 10:20:07;;;;;;;;;;;10.90;99.90;;;;;;4933007;29;20373;-85
2023/11/13 10:22:32;;;;;;;;;;;10.90;99.90;;;;;;4929861;29;19915;-84
2023/11/13 10:24:58;;;;;;;;;;;10.90;99.90;;;;;;4923174;29;19957;-85
2023/11/13 10:27:23;;;;;;;;;;;10.90;99.90;;;;;;4929780;29;19914;-84
2023/11/13 10:30:00;;;;;;;;;;;10.90;99.90;;;;;;4928978;29;19946;-86
2023/11/13 10:32:29;;;;;;;;;;;10.90;99.90;;;;;;4926626;29;19910;-92
2023/11/13 10:34:55;;;;;;;;;;;10.90;99.90;;;;;;4928539;29;20436;-86
2023/11/13 10:37:20;;;;;;;;;;;10.90;99.90;;;;;;4927543;29;19919;-85
2023/11/13 10:39:47;;;;;;;;;;;10.90;99.90;;;;;;4941781;28;20396;-86
2023/11/13 10:42:18;;;;;;;;;;;10.90;99.90;;;;;;4933192;28;19923;-86
2023/11/13 10:44:43;;;;;;;;;;;10.90;99.90;;;;;;4937852;29;19911;-86
2023/11/13 10:47:22;;;;;;;;;;;10.90;99.90;;;;;;4928658;29;19922;-87
2023/11/13 10:49:55;;;;;;;;;;;11.00;99.90;;;;;;4931514;29;19910;-87
2023/11/13 10:52:28;;;;;;;;;;;10.90;99.90;;;;;;4935018;29;19914;-85
2023/11/13 10:54:59;;;;;;;;;;;10.90;99.90;;;;;;4915405;29;19911;-88
2023/11/13 10:57:26;;;;;;;;;;;11.00;99.90;;;;;;4924260;29;19915;-94
2023/11/13 10:59:53;;;;;;;;;;;10.90;99.90;;;;;;4929788;29;19911;-87
2023/11/13 11:02:30;;;;;;;;;;;11.00;99.90;;;;;;4926508;29;20319;-88
2023/11/13 11:04:58;;;;;;;;;;;11.00;99.90;;;;;;4928058;29;19910;-85
2023/11/13 11:07:26;;;;;;;;;;;11.00;99.90;;;;;;4931400;29;20013;-84
2023/11/13 11:10:00;;;;;;;;;;;11.00;99.90;;;;;;4924970;29;19957;-83
2023/11/13 11:12:27;;;;;;;;;;;11.00;99.90;;;;;;4921976;29;19921;-84
2023/11/13 11:14:58;;;;;;;;;;;11.00;99.90;;;;;;4926340;29;19960;-87
2023/11/13 11:17:30;;;;;;;;;;;11.00;99.90;;;;;;4938596;28;19925;-84
2023/11/13 11:20:00;;;;;;;;;;;11.00;99.90;;;;;;4933494;29;19977;-87
2023/11/13 11:22:31;;;;;;;;;;;10.90;99.90;;;;;;4933523;28;19917;-88
2023/11/13 11:25:11;;;;;;;;;;;11.00;99.90;;;;;;4931619;29;19997;-90
2023/11/13 11:27:43;;;;;;;;;;;11.00;99.90;;;;;;4931955;29;19911;-87
2023/11/13 11:30:18;;;;;;;;;;;11.00;99.90;;;;;;4930533;29;19950;-89
2023/11/13 11:32:53;;;;;;;;;;;11.00;99.90;;;;;;4930606;29;19950;-87
2023/11/13 11:35:19;;;;;;;;;;;11.00;99.90;;;;;;4925248;29;19969;-87
2023/11/13 11:38:04;;;;;;;;;;;11.10;99.90;;;;;;4929110;29;19915;-86
2023/11/13 11:40:30;;;;;;;;;;;11.10;99.90;;;;;;4933130;29;20420;-87
2023/11/13 11:42:55;;;;;;;;;;;11.10;99.90;;;;;;4933983;28;19993;-87
2023/11/13 11:45:23;;;;;;;;;;;11.10;99.90;;;;;;4936176;29;19915;-85
2023/11/13 11:47:52;;;;;;;;;;;11.20;99.90;;;;;;4922547;29;20370;-87
2023/11/13 11:50:19;;;;;;;;;;;11.20;99.90;;;;;;4927109;29;19923;-86
2023/11/13 11:52:53;;;;;;;;;;;11.20;99.90;;;;;;4930381;29;19973;-88
2023/11/13 11:55:19;;;;;;;;;;;11.20;99.90;;;;;;4934406;29;19923;-88
2023/11/13 11:57:48;;;;;;;;;;;11.30;99.90;;;;;;4941928;28;20378;-87
2023/11/13 12:00:19;;;;;;;;;;;11.30;99.90;;;;;;4932600;29;19914;-88
2023/11/13 12:02:45;;;;;;;;;;;11.30;99.90;;;;;;4935557;29;19918;-85
2023/11/13 12:05:11;;;;;;;;;;;11.40;99.90;;;;;;4930689;29;19936;-87
2023/11/13 12:07:37;;;;;;;;;;;11.40;99.90;;;;;;4934704;29;19926;-87
2023/11/13 12:10:08;;;;;;;;;;;11.50;99.90;;;;;;4928656;29;20281;-87
2023/11/13 12:12:37;;;;;;;;;;;11.50;99.90;;;;;;4928723;29;19911;-87
2023/11/13 12:15:08;;;;;;;;;;;11.60;99.90;;;;;;4931334;28;19939;-87
2023/11/13 12:17:34;;;;;;;;;;;11.60;99.90;;;;;;4935663;29;19914;-86
2023/11/13 12:20:00;;;;;;;;;;;11.70;99.90;;;;;;4933959;29;20313;-84
2023/11/13 12:22:25;;;;;;;;;;;11.80;99.90;;;;;;4929913;29;19922;-88
2023/11/13 12:24:51;;;;;;;;;;;11.80;99.90;;;;;;4935777;28;19918;-87
2023/11/13 12:27:17;;;;;;;;;;;11.90;99.90;;;;;;4925687;29;19921;-85
2023/11/13 12:29:43;;;;;;;;;;;11.90;99.90;;;;;;4932146;29;19915;-86
2023/11/13 12:32:09;;;;;;;;;;;12.00;99.90;;;;;;4939735;29;19961;-94
2023/11/13 12:34:38;;;;;;;;;;;12.10;99.90;;;;;;4933321;29;19969;-88
2023/11/13 12:37:05;;;;;;;;;;;12.20;99.90;;;;;;4934604;29;19926;-85
2023/11/13 12:39:32;;;;;;;;;;;12.20;99.90;;;;;;4932376;29;19915;-86
2023/11/13 12:41:59;;;;;;;;;;;12.30;99.90;;;;;;4933580;29;19948;-87
2023/11/13 12:44:25;;;;;;;;;;;12.40;99.90;;;;;;4931700;29;19914;-87
2023/11/13 12:46:54;;;;;;;;;;;12.40;99.90;;;;;;4936351;29;20041;-87
2023/11/13 12:49:20;;;;;;;;;;;12.50;99.90;;;;;;4928804;29;19973;-88
2023/11/13 12:51:46;;;;;;;;;;;12.50;99.90;;;;;;4933500;29;19954;-89
2023/11/13 12:54:14;;;;;;;;;;;12.60;99.90;;;;;;4949232;28;19910;-88
2023/11/13 12:56:41;;;;;;;;;;;12.70;99.90;;;;;;4944813;28;20293;-87
2023/11/13 12:59:07;;;;;;;;;;;12.70;99.90;;;;;;4948588;28;20571;-86
2023/11/13 13:01:33;;;;;;;;;;;12.80;99.90;;;;;;4932043;29;19910;-87
2023/11/13 13:03:58;;;;;;;;;;;12.90;99.90;;;;;;4926514;29;20455;-88
2023/11/13 13:06:25;;;;;;;;;;;13.00;99.90;;;;;;4936716;29;20416;-91
2023/11/13 13:08:53;;;;;;;;;;;13.00;99.90;;;;;;4921904;29;19914;-87
2023/11/13 13:11:23;;;;;;;;;;;13.10;99.90;;;;;;4934085;29;19946;-89
2023/11/13 13:13:48;;;;;;;;;;;13.10;99.90;;;;;;4930242;29;19911;-84
2023/11/13 13:16:16;;;;;;;;;;;13.20;99.90;;;;;;4928825;29;19924;-86
2023/11/13 13:18:45;;;;;;;;;;;13.20;99.90;;;;;;4929612;29;19922;-87
2023/11/13 13:21:11;;;;;;;;;;;13.30;99.90;;;;;;4935215;29;19965;-87
2023/11/13 13:23:36;;;;;;;;;;;13.40;99.90;;;;;;4928030;29;19944;-86
2023/11/13 13:26:05;;;;;;;;;;;13.40;99.90;;;;;;4931676;29;19925;-87
2023/11/13 13:28:31;;;;;;;;;;;13.50;99.90;;;;;;4930358;29;20017;-85
2023/11/13 13:30:57;;;;;;;;;;;13.60;99.90;;;;;;4931133;29;19915;-86
2023/11/13 13:33:22;;;;;;;;;;;13.60;99.90;;;;;;4931661;29;19910;-86
2023/11/13 13:35:49;;;;;;;;;;;13.70;99.90;;;;;;4932251;29;19927;-87
2023/11/13 13:38:16;;;;;;;;;;;13.70;99.90;;;;;;4924658;29;19910;-86
2023/11/13 13:40:42;;;;;;;;;;;13.80;99.90;;;;;;4923241;29;19915;-85
2023/11/13 13:43:08;;;;;;;;;;;13.90;99.90;;;;;;4922856;29;19910;-85
2023/11/13 13:45:34;;;;;;;;;;;13.90;99.90;;;;;;4924797;29;19919;-84
2023/11/13 13:48:01;;;;;;;;;;;14.00;99.90;;;;;;4923951;29;19915;-85
2023/11/13 13:50:29;;;;;;;;;;;14.00;99.90;;;;;;4923235;29;19938;-85
2023/11/13 13:52:55;;;;;;;;;;;14.20;99.90;;;;;;4924028;29;20282;-84
2023/11/13 13:55:25;;;;;;;;;;;14.20;99.90;;;;;;4926006;29;20045;-84
2023/11/13 13:57:50;;;;;;;;;;;14.20;99.90;;;;;;4925066;29;19918;-85
2023/11/13 14:00:24;;;;;;;;;;;14.30;99.90;;;;;;4923479;29;19926;-87
2023/11/13 14:02:53;;;;;;;;;;;14.30;99.90;;;;;;4927751;29;19926;-84
2023/11/13 14:05:20;;;;;;;;;;;14.40;99.90;;;;;;4941699;28;20338;-86
2023/11/13 14:07:47;;;;;;;;;;;14.40;99.90;;;;;;4927627;29;19926;-84
2023/11/13 14:10:15;;;;;;;;;;;14.50;99.90;;;;;;4926129;29;19990;-84
2023/11/13 14:12:41;;;;;;;;;;;14.50;99.90;;;;;;4926510;29;20001;-90
2023/11/13 14:15:11;;;;;;;;;;;14.60;99.90;;;;;;4929103;29;20327;-86
2023/11/13 14:17:40;;;;;;;;;;;14.70;99.90;;;;;;4934466;29;19914;-87
2023/11/13 14:20:15;;;;;;;;;;;14.70;99.90;;;;;;4932288;29;19919;-87
2023/11/13 14:22:48;;;;;;;;;;;14.80;99.90;;;;;;4928056;29;19923;-87
2023/11/13 14:25:17;;;;;;;;;;;14.80;99.90;;;;;;4930551;29;19915;-90
2023/11/13 14:27:43;;;;;;;;;;;14.90;99.90;;;;;;4926753;29;19926;-89
2023/11/13 14:30:11;;;;;;;;;;;14.90;99.90;;;;;;4945326;28;19914;-88
2023/11/13 14:32:37;;;;;;;;;;;14.90;99.90;;;;;;4925640;29;19986;-86
2023/11/13 14:35:03;;;;;;;;;;;14.90;99.90;;;;;;4925510;29;20016;-85
2023/11/13 14:37:29;;;;;;;;;;;15.00;99.90;;;;;;4927175;29;19919;-85
2023/11/13 14:39:54;;;;;;;;;;;15.00;99.90;;;;;;4926293;29;19933;-88
2023/11/13 14:42:20;;;;;;;;;;;15.00;99.90;;;;;;4929918;29;19975;-86